sensor_id;sensor_type;location;lat;lon;timestamp;pressure;altitude;pressure_sealevel;temperature;humidity
42951;BME280;28592;51.064;17.192;2022-09-30T00:01:17;99470.98;;;6.74;100.00
42951;BME280;28592;51.064;17.192;2022-09-30T00:04:03;99464.87;;;6.74;100.00
42951;BME280;28592;51.064;17.192;2022-09-30T00:06:50;99465.72;;;6.74;100.00
42951;BME280;28592;51.064;17.192;2022-09-30T00:09:35;99483.03;;;6.77;100.00
42951;BME280;28592;51.064;17.192;2022-09-30T00:12:21;99484.86;;;6.76;100.00
42951;BME280;28592;51.064;17.192;2022-09-30T00:15:07;99479.85;;;6.73;100.00
42951;BME280;28592;51.064;17.192;2022-09-30T00:17:52;99485.61;;;6.67;100.00
42951;BME280;28592;51.064;17.192;2022-09-30T00:20:37;99483.95;;;6.66;100.00
42951;BME280;28592;51.064;17.192;2022-09-30T00:23:23;99477.16;;;6.64;100.00
42951;BME280;28592;51.064;17.192;2022-09-30T00:26:16;99482.30;;;6.65;100.00
42951;BME280;28592;51.064;17.192;2022-09-30T00:29:02;99483.81;;;6.68;100.00
42951;BME280;28592;51.064;17.192;2022-09-30T00:31:47;99503.02;;;6.79;100.00
42951;BME280;28592;51.064;17.192;2022-09-30T00:34:33;99496.26;;;6.86;100.00
42951;BME280;28592;51.064;17.192;2022-09-30T00:37:18;99504.77;;;6.99;100.00
42951;BME280;28592;51.064;17.192;2022-09-30T00:40:04;99503.03;;;7.09;100.00
42951;BME280;28592;51.064;17.192;2022-09-30T00:42:50;99501.52;;;7.16;100.00
42951;BME280;28592;51.064;17.192;2022-09-30T00:45:36;99510.31;;;7.27;100.00
42951;BME280;28592;51.064;17.192;2022-09-30T00:48:28;99507.95;;;7.33;100.00
42951;BME280;28592;51.064;17.192;2022-09-30T00:51:14;99509.78;;;7.33;100.00
42951;BME280;28592;51.064;17.192;2022-09-30T00:54:03;99509.96;;;7.50;100.00
42951;BME280;28592;51.064;17.192;2022-09-30T00:57:01;99508.44;;;7.48;100.00
42951;BME280;28592;51.064;17.192;2022-09-30T00:59:49;99517.05;;;7.59;100.00
42951;BME280;28592;51.064;17.192;2022-09-30T01:02:35;99527.64;;;7.69;100.00
42951;BME280;28592;51.064;17.192;2022-09-30T01:05:22;99517.12;;;7.78;100.00
42951;BME280;28592;51.064;17.192;2022-09-30T01:08:11;99519.89;;;7.77;100.00
42951;BME280;28592;51.064;17.192;2022-09-30T01:10:56;99526.87;;;7.97;100.00
42951;BME280;28592;51.064;17.192;2022-09-30T01:13:45;99524.50;;;8.03;100.00
42951;BME280;28592;51.064;17.192;2022-09-30T01:22:47;99516.64;;;8.22;100.00
42951;BME280;28592;51.064;17.192;2022-09-30T01:37:40;99512.19;;;8.42;100.00
42951;BME280;28592;51.064;17.192;2022-09-30T01:43:33;99513.17;;;8.41;100.00
42951;BME280;28592;51.064;17.192;2022-09-30T01:49:24;99510.63;;;8.68;100.00
42951;BME280;28592;51.064;17.192;2022-09-30T01:55:20;99508.55;;;8.71;100.00
42951;BME280;28592;51.064;17.192;2022-09-30T01:58:18;99511.33;;;8.70;100.00
42951;BME280;28592;51.064;17.192;2022-09-30T02:01:11;99509.50;;;8.61;100.00
42951;BME280;28592;51.064;17.192;2022-09-30T02:04:04;99518.55;;;8.68;100.00
42951;BME280;28592;51.064;17.192;2022-09-30T02:06:55;99515.63;;;8.71;100.00
42951;BME280;28592;51.064;17.192;2022-09-30T02:09:48;99514.35;;;8.75;100.00
42951;BME280;28592;51.064;17.192;2022-09-30T02:12:41;99511.05;;;8.73;100.00
42951;BME280;28592;51.064;17.192;2022-09-30T02:15:35;99509.35;;;8.72;100.00
42951;BME280;28592;51.064;17.192;2022-09-30T02:18:38;99502.86;;;8.57;100.00
42951;BME280;28592;51.064;17.192;2022-09-30T02:21:26;99505.36;;;8.49;100.00
42951;BME280;28592;51.064;17.192;2022-09-30T02:24:16;99498.84;;;8.53;100.00
42951;BME280;28592;51.064;17.192;2022-09-30T02:27:18;99493.56;;;8.53;100.00
42951;BME280;28592;51.064;17.192;2022-09-30T02:30:05;99514.61;;;8.91;100.00
42951;BME280;28592;51.064;17.192;2022-09-30T02:32:58;99510.98;;;8.92;100.00
42951;BME280;28592;51.064;17.192;2022-09-30T02:35:48;99516.10;;;9.03;100.00
42951;BME280;28592;51.064;17.192;2022-09-30T02:38:41;99518.86;;;9.11;100.00
42951;BME280;28592;51.064;17.192;2022-09-30T02:41:32;99518.95;;;9.19;100.00
42951;BME280;28592;51.064;17.192;2022-09-30T02:44:20;99522.58;;;9.18;100.00
42951;BME280;28592;51.064;17.192;2022-09-30T02:53:14;99516.31;;;9.19;100.00
42951;BME280;28592;51.064;17.192;2022-09-30T02:56:16;99513.81;;;9.18;100.00
42951;BME280;28592;51.064;17.192;2022-09-30T02:59:03;99525.39;;;9.44;100.00
42951;BME280;28592;51.064;17.192;2022-09-30T03:01:49;99529.28;;;9.49;100.00
42951;BME280;28592;51.064;17.192;2022-09-30T03:04:38;99538.58;;;9.53;100.00
42951;BME280;28592;51.064;17.192;2022-09-30T03:07:25;99547.06;;;9.57;100.00
42951;BME280;28592;51.064;17.192;2022-09-30T03:10:12;99545.08;;;9.59;100.00
42951;BME280;28592;51.064;17.192;2022-09-30T03:30:58;99570.16;;;9.82;100.00
42951;BME280;28592;51.064;17.192;2022-09-30T03:33:50;99562.67;;;9.77;100.00
42951;BME280;28592;51.064;17.192;2022-09-30T03:42:43;99568.06;;;9.85;100.00
42951;BME280;28592;51.064;17.192;2022-09-30T03:45:36;99573.66;;;9.82;100.00
42951;BME280;28592;51.064;17.192;2022-09-30T03:48:24;99573.66;;;9.82;100.00
42951;BME280;28592;51.064;17.192;2022-09-30T03:51:12;99567.67;;;9.80;100.00
42951;BME280;28592;51.064;17.192;2022-09-30T03:53:58;99572.95;;;9.80;100.00
42951;BME280;28592;51.064;17.192;2022-09-30T03:56:44;99577.26;;;9.81;100.00
42951;BME280;28592;51.064;17.192;2022-09-30T03:59:29;99568.52;;;9.81;100.00
42951;BME280;28592;51.064;17.192;2022-09-30T04:02:15;99569.47;;;9.80;100.00
42951;BME280;28592;51.064;17.192;2022-09-30T04:05:06;99566.67;;;9.81;100.00
42951;BME280;28592;51.064;17.192;2022-09-30T04:07:54;99574.91;;;9.78;100.00
42951;BME280;28592;51.064;17.192;2022-09-30T04:10:41;99578.55;;;9.77;100.00
42951;BME280;28592;51.064;17.192;2022-09-30T04:13:27;99574.91;;;9.78;100.00
42951;BME280;28592;51.064;17.192;2022-09-30T04:16:12;99580.20;;;9.78;100.00
42951;BME280;28592;51.064;17.192;2022-09-30T04:18:58;99572.66;;;9.83;100.00
42951;BME280;28592;51.064;17.192;2022-09-30T04:21:44;99568.06;;;9.85;100.00
42951;BME280;28592;51.064;17.192;2022-09-30T04:24:29;99565.56;;;9.84;100.00
42951;BME280;28592;51.064;17.192;2022-09-30T04:27:14;99560.67;;;9.89;100.00
42951;BME280;28592;51.064;17.192;2022-09-30T04:30:00;99561.93;;;9.85;100.00
42951;BME280;28592;51.064;17.192;2022-09-30T04:32:45;99566.37;;;9.84;100.00
42951;BME280;28592;51.064;17.192;2022-09-30T04:35:31;99568.47;;;9.90;100.00
42951;BME280;28592;51.064;17.192;2022-09-30T04:38:16;99568.02;;;9.95;100.00
42951;BME280;28592;51.064;17.192;2022-09-30T04:41:03;99572.86;;;9.99;100.00
42951;BME280;28592;51.064;17.192;2022-09-30T04:43:49;99563.83;;;9.92;100.00
42951;BME280;28592;51.064;17.192;2022-09-30T04:46:35;99563.98;;;9.91;100.00
42951;BME280;28592;51.064;17.192;2022-09-30T04:49:20;99574.61;;;9.81;100.00
42951;BME280;28592;51.064;17.192;2022-09-30T04:52:06;99577.11;;;9.83;100.00
42951;BME280;28592;51.064;17.192;2022-09-30T04:54:52;99568.36;;;9.82;100.00
42951;BME280;28592;51.064;17.192;2022-09-30T04:57:38;99589.55;;;10.00;100.00
42951;BME280;28592;51.064;17.192;2022-09-30T05:00:23;99585.66;;;10.04;100.00
42951;BME280;28592;51.064;17.192;2022-09-30T05:03:09;99594.98;;;10.08;100.00
42951;BME280;28592;51.064;17.192;2022-09-30T05:05:55;99594.98;;;10.08;100.00
42951;BME280;28592;51.064;17.192;2022-09-30T05:08:41;99604.42;;;10.10;100.00
42951;BME280;28592;51.064;17.192;2022-09-30T05:11:27;99612.02;;;10.23;100.00
42951;BME280;28592;51.064;17.192;2022-09-30T05:14:13;99616.87;;;10.27;100.00
42951;BME280;28592;51.064;17.192;2022-09-30T05:16:59;99615.21;;;10.26;100.00
42951;BME280;28592;51.064;17.192;2022-09-30T05:19:45;99617.27;;;10.32;100.00
42951;BME280;28592;51.064;17.192;2022-09-30T05:22:30;99640.05;;;10.43;100.00
42951;BME280;28592;51.064;17.192;2022-09-30T05:25:16;99632.05;;;10.52;100.00
42951;BME280;28592;51.064;17.192;2022-09-30T05:28:01;99627.70;;;10.51;100.00
42951;BME280;28592;51.064;17.192;2022-09-30T05:30:47;99641.81;;;10.70;100.00
42951;BME280;28592;51.064;17.192;2022-09-30T05:33:34;99640.13;;;10.68;100.00
42951;BME280;28592;51.064;17.192;2022-09-30T05:36:20;99641.34;;;10.56;100.00
42951;BME280;28592;51.064;17.192;2022-09-30T05:39:10;99650.13;;;10.75;100.00
42951;BME280;28592;51.064;17.192;2022-09-30T05:41:56;99651.12;;;10.74;100.00
42951;BME280;28592;51.064;17.192;2022-09-30T05:44:41;99658.21;;;11.08;100.00
42951;BME280;28592;51.064;17.192;2022-09-30T05:47:27;99653.44;;;11.12;100.00
42951;BME280;28592;51.064;17.192;2022-09-30T05:50:12;99655.55;;;11.26;100.00
42951;BME280;28592;51.064;17.192;2022-09-30T05:52:57;99653.20;;;11.23;100.00
42951;BME280;28592;51.064;17.192;2022-09-30T05:55:45;99654.55;;;11.27;100.00
42951;BME280;28592;51.064;17.192;2022-09-30T05:58:31;99654.79;;;11.16;100.00
42951;BME280;28592;51.064;17.192;2022-09-30T06:01:16;99653.98;;;11.15;100.00
42951;BME280;28592;51.064;17.192;2022-09-30T06:04:02;99656.80;;;11.39;100.00
42951;BME280;28592;51.064;17.192;2022-09-30T06:06:47;99660.73;;;11.35;100.00
42951;BME280;28592;51.064;17.192;2022-09-30T06:09:32;99677.38;;;11.20;100.00
42951;BME280;28592;51.064;17.192;2022-09-30T06:12:17;99673.00;;;11.11;100.00
42951;BME280;28592;51.064;17.192;2022-09-30T06:15:03;99681.53;;;11.22;100.00
42951;BME280;28592;51.064;17.192;2022-09-30T06:17:52;99688.56;;;11.31;100.00
42951;BME280;28592;51.064;17.192;2022-09-30T06:20:38;99685.33;;;11.20;100.00
42951;BME280;28592;51.064;17.192;2022-09-30T06:23:23;99680.19;;;11.18;100.00
42951;BME280;28592;51.064;17.192;2022-09-30T06:26:12;99690.33;;;11.05;100.00
42951;BME280;28592;51.064;17.192;2022-09-30T06:28:58;99695.70;;;10.96;100.00
42951;BME280;28592;51.064;17.192;2022-09-30T06:31:44;99696.55;;;10.96;100.00
42951;BME280;28592;51.064;17.192;2022-09-30T06:34:29;99711.00;;;11.02;100.00
42951;BME280;28592;51.064;17.192;2022-09-30T06:37:15;99707.53;;;11.01;100.00
42951;BME280;28592;51.064;17.192;2022-09-30T06:40:04;99699.73;;;11.00;100.00
42951;BME280;28592;51.064;17.192;2022-09-30T06:42:50;99705.78;;;11.10;100.00
42951;BME280;28592;51.064;17.192;2022-09-30T06:45:36;99700.90;;;11.40;100.00
42951;BME280;28592;51.064;17.192;2022-09-30T06:48:22;99703.31;;;11.51;100.00
42951;BME280;28592;51.064;17.192;2022-09-30T06:51:07;99709.77;;;11.49;100.00
42951;BME280;28592;51.064;17.192;2022-09-30T06:53:54;99722.23;;;11.74;100.00
42951;BME280;28592;51.064;17.192;2022-09-30T06:56:40;99720.42;;;11.74;100.00
42951;BME280;28592;51.064;17.192;2022-09-30T06:59:26;99720.20;;;11.68;100.00
42951;BME280;28592;51.064;17.192;2022-09-30T07:02:17;99717.86;;;11.90;100.00
42951;BME280;28592;51.064;17.192;2022-09-30T07:05:02;99725.61;;;11.84;100.00
42951;BME280;28592;51.064;17.192;2022-09-30T07:07:48;99718.64;;;11.83;100.00
42951;BME280;28592;51.064;17.192;2022-09-30T07:10:33;99721.27;;;11.40;100.00
42951;BME280;28592;51.064;17.192;2022-09-30T07:13:19;99725.69;;;11.31;100.00
42951;BME280;28592;51.064;17.192;2022-09-30T07:16:05;99734.48;;;11.14;100.00
42951;BME280;28592;51.064;17.192;2022-09-30T07:18:52;99745.17;;;11.22;100.00
42951;BME280;28592;51.064;17.192;2022-09-30T07:21:38;99741.68;;;11.22;100.00
42951;BME280;28592;51.064;17.192;2022-09-30T07:24:24;99738.88;;;11.41;100.00
42951;BME280;28592;51.064;17.192;2022-09-30T07:27:09;99747.33;;;11.62;100.00
42951;BME280;28592;51.064;17.192;2022-09-30T07:29:57;99747.05;;;11.65;100.00
42951;BME280;28592;51.064;17.192;2022-09-30T07:32:44;99747.77;;;11.75;100.00
42951;BME280;28592;51.064;17.192;2022-09-30T07:35:29;99752.90;;;11.94;100.00
42951;BME280;28592;51.064;17.192;2022-09-30T07:38:16;99752.90;;;11.94;100.00
42951;BME280;28592;51.064;17.192;2022-09-30T07:41:05;99762.27;;;12.06;100.00
42951;BME280;28592;51.064;17.192;2022-09-30T07:43:55;99762.64;;;11.85;100.00
42951;BME280;28592;51.064;17.192;2022-09-30T07:46:43;99763.51;;;11.68;100.00
42951;BME280;28592;51.064;17.192;2022-09-30T07:49:29;99768.89;;;12.02;100.00
42951;BME280;28592;51.064;17.192;2022-09-30T07:52:19;99767.20;;;12.01;100.00
42951;BME280;28592;51.064;17.192;2022-09-30T07:55:04;99767.06;;;12.36;100.00
42951;BME280;28592;51.064;17.192;2022-09-30T07:57:50;99776.09;;;12.43;100.00
42951;BME280;28592;51.064;17.192;2022-09-30T08:00:35;99768.59;;;12.38;100.00
42951;BME280;28592;51.064;17.192;2022-09-30T08:03:20;99775.66;;;12.64;100.00
42951;BME280;28592;51.064;17.192;2022-09-30T08:06:14;99779.44;;;12.19;100.00
42951;BME280;28592;51.064;17.192;2022-09-30T08:09:00;99772.05;;;12.31;100.00
42951;BME280;28592;51.064;17.192;2022-09-30T08:11:51;99770.36;;;12.30;100.00
42951;BME280;28592;51.064;17.192;2022-09-30T08:14:41;99780.81;;;12.65;100.00
42951;BME280;28592;51.064;17.192;2022-09-30T08:17:30;99776.50;;;12.64;100.00
42951;BME280;28592;51.064;17.192;2022-09-30T08:20:15;99768.92;;;12.85;100.00
42951;BME280;28592;51.064;17.192;2022-09-30T08:23:00;99773.33;;;13.02;100.00
42951;BME280;28592;51.064;17.192;2022-09-30T08:25:46;99785.56;;;12.87;100.00
42951;BME280;28592;51.064;17.192;2022-09-30T08:28:32;99791.95;;;13.02;100.00
42951;BME280;28592;51.064;17.192;2022-09-30T08:31:19;99793.11;;;13.08;100.00
42951;BME280;28592;51.064;17.192;2022-09-30T08:34:04;99803.56;;;13.01;100.00
42951;BME280;28592;51.064;17.192;2022-09-30T08:36:50;99796.72;;;12.99;100.00
42951;BME280;28592;51.064;17.192;2022-09-30T08:39:36;99792.77;;;13.03;100.00
42951;BME280;28592;51.064;17.192;2022-09-30T08:45:30;99801.66;;;13.99;100.00
42951;BME280;28592;51.064;17.192;2022-09-30T08:48:27;99799.17;;;13.98;100.00
42951;BME280;28592;51.064;17.192;2022-09-30T08:54:21;99806.33;;;13.65;100.00
42951;BME280;28592;51.064;17.192;2022-09-30T08:57:09;99800.68;;;13.84;100.00
42951;BME280;28592;51.064;17.192;2022-09-30T09:00:00;99803.48;;;14.07;100.00
42951;BME280;28592;51.064;17.192;2022-09-30T09:02:59;99798.33;;;14.05;100.00
42951;BME280;28592;51.064;17.192;2022-09-30T09:20:43;99819.95;;;15.50;100.00
42951;BME280;28592;51.064;17.192;2022-09-30T09:23:32;99828.44;;;15.76;100.00
42951;BME280;28592;51.064;17.192;2022-09-30T09:26:17;99825.94;;;15.75;100.00
42951;BME280;28592;51.064;17.192;2022-09-30T09:34:59;99827.99;;;16.25;100.00
42951;BME280;28592;51.064;17.192;2022-09-30T09:47:00;99826.81;;;16.42;98.00
42951;BME280;28592;51.064;17.192;2022-09-30T09:49:59;99835.69;;;16.42;96.08
42951;BME280;28592;51.064;17.192;2022-09-30T09:53:00;99825.98;;;16.41;96.24
42951;BME280;28592;51.064;17.192;2022-09-30T09:55:48;99832.75;;;16.52;96.81
42951;BME280;28592;51.064;17.192;2022-09-30T09:58:40;99834.61;;;16.51;96.58
42951;BME280;28592;51.064;17.192;2022-09-30T10:01:34;99835.39;;;16.23;97.84
42951;BME280;28592;51.064;17.192;2022-09-30T10:04:26;99834.55;;;16.22;97.61
42951;BME280;28592;51.064;17.192;2022-09-30T10:07:20;99834.98;;;16.48;96.61
42951;BME280;28592;51.064;17.192;2022-09-30T10:10:17;99831.80;;;16.30;94.34
42951;BME280;28592;51.064;17.192;2022-09-30T10:13:03;99838.75;;;16.54;96.32
42951;BME280;28592;51.064;17.192;2022-09-30T10:15:51;99838.75;;;16.54;96.41
42951;BME280;28592;51.064;17.192;2022-09-30T10:18:44;99846.13;;;16.52;96.54
42951;BME280;28592;51.064;17.192;2022-09-30T10:21:28;99847.42;;;16.70;94.87
42951;BME280;28592;51.064;17.192;2022-09-30T10:24:23;99838.20;;;16.87;92.56
42951;BME280;28592;51.064;17.192;2022-09-30T10:30:05;99838.12;;;16.66;93.80
42951;BME280;28592;51.064;17.192;2022-09-30T10:32:50;99842.06;;;16.99;92.59
42951;BME280;28592;51.064;17.192;2022-09-30T10:38:33;99835.56;;;17.23;90.54
42951;BME280;28592;51.064;17.192;2022-09-30T10:41:27;99835.56;;;17.23;89.43
42951;BME280;28592;51.064;17.192;2022-09-30T10:44:21;99833.59;;;17.31;89.45
42951;BME280;28592;51.064;17.192;2022-09-30T10:47:08;99840.49;;;17.40;89.19
42951;BME280;28592;51.064;17.192;2022-09-30T10:50:05;99840.23;;;17.50;91.11
42951;BME280;28592;51.064;17.192;2022-09-30T10:52:57;99846.04;;;17.39;88.59
42951;BME280;28592;51.064;17.192;2022-09-30T10:55:44;99842.06;;;17.49;89.86
42951;BME280;28592;51.064;17.192;2022-09-30T10:58:39;99848.47;;;17.70;90.81
42951;BME280;28592;51.064;17.192;2022-09-30T11:04:31;99836.33;;;17.74;85.09
42951;BME280;28592;51.064;17.192;2022-09-30T11:13:22;99827.10;;;17.40;84.00
42951;BME280;28592;51.064;17.192;2022-09-30T11:16:23;99821.39;;;17.43;87.44
42951;BME280;28592;51.064;17.192;2022-09-30T11:25:03;99823.88;;;17.09;85.34
42951;BME280;28592;51.064;17.192;2022-09-30T11:27:57;99828.14;;;16.89;85.07
42951;BME280;28592;51.064;17.192;2022-09-30T11:30:53;99817.81;;;16.86;85.15
42951;BME280;28592;51.064;17.192;2022-09-30T11:39:40;99825.30;;;16.10;83.94
42951;BME280;28592;51.064;17.192;2022-09-30T11:42:37;99830.97;;;17.02;84.66
42951;BME280;28592;51.064;17.192;2022-09-30T11:57:21;99840.77;;;18.09;83.52
42951;BME280;28592;51.064;17.192;2022-09-30T12:00:15;99844.89;;;18.32;79.94
42951;BME280;28592;51.064;17.192;2022-09-30T12:03:14;99829.00;;;18.31;79.82
42951;BME280;28592;51.064;17.192;2022-09-30T12:06:03;99830.59;;;17.98;79.88
42951;BME280;28592;51.064;17.192;2022-09-30T12:08:57;99830.39;;;18.48;79.86
42951;BME280;28592;51.064;17.192;2022-09-30T12:14:50;99833.05;;;18.82;80.89
42951;BME280;28592;51.064;17.192;2022-09-30T12:17:46;99839.92;;;18.91;79.68
42951;BME280;28592;51.064;17.192;2022-09-30T12:20:41;99836.83;;;18.94;76.65
42951;BME280;28592;51.064;17.192;2022-09-30T12:23:32;99849.17;;;18.48;75.26
42951;BME280;28592;51.064;17.192;2022-09-30T12:26:20;99853.36;;;18.57;78.07
42951;BME280;28592;51.064;17.192;2022-09-30T12:41:19;99863.85;;;17.82;73.03
42951;BME280;28592;51.064;17.192;2022-09-30T12:44:22;99868.23;;;18.11;74.90
42951;BME280;28592;51.064;17.192;2022-09-30T12:50:05;99875.95;;;18.20;77.11
42951;BME280;28592;51.064;17.192;2022-09-30T12:52:51;99861.73;;;17.57;80.07
42951;BME280;28592;51.064;17.192;2022-09-30T12:55:41;99866.52;;;17.61;80.16
42951;BME280;28592;51.064;17.192;2022-09-30T12:58:31;99870.33;;;17.37;81.66
42951;BME280;28592;51.064;17.192;2022-09-30T13:01:24;99865.36;;;17.34;78.51
42951;BME280;28592;51.064;17.192;2022-09-30T13:04:17;99861.21;;;17.68;80.82
42951;BME280;28592;51.064;17.192;2022-09-30T13:07:16;99856.88;;;17.67;80.91
42951;BME280;28592;51.064;17.192;2022-09-30T13:15:58;99854.92;;;17.96;75.14
42951;BME280;28592;51.064;17.192;2022-09-30T13:18:59;99854.56;;;18.06;74.14
42951;BME280;28592;51.064;17.192;2022-09-30T13:21:45;99857.27;;;18.33;78.36
42951;BME280;28592;51.064;17.192;2022-09-30T13:30:31;99860.52;;;18.22;80.05
42951;BME280;28592;51.064;17.192;2022-09-30T13:33:27;99863.00;;;18.24;78.50
42951;BME280;28592;51.064;17.192;2022-09-30T13:36:24;99854.55;;;18.48;76.92
42951;BME280;28592;51.064;17.192;2022-09-30T13:48:11;99845.68;;;18.88;76.54
42951;BME280;28592;51.064;17.192;2022-09-30T13:50:59;99836.19;;;18.85;76.40
42951;BME280;28592;51.064;17.192;2022-09-30T13:53:54;99849.15;;;18.75;74.61
42951;BME280;28592;51.064;17.192;2022-09-30T13:56:43;99849.34;;;18.74;74.51
42951;BME280;28592;51.064;17.192;2022-09-30T14:02:39;99853.43;;;18.70;74.72
42951;BME280;28592;51.064;17.192;2022-09-30T14:05:32;99854.08;;;18.72;74.42
42951;BME280;28592;51.064;17.192;2022-09-30T14:11:32;99853.19;;;18.99;75.60
42951;BME280;28592;51.064;17.192;2022-09-30T14:17:43;99857.70;;;19.33;74.47
42951;BME280;28592;51.064;17.192;2022-09-30T14:23:16;99853.27;;;19.12;71.85
42951;BME280;28592;51.064;17.192;2022-09-30T14:31:54;99854.94;;;18.45;72.70
42951;BME280;28592;51.064;17.192;2022-09-30T14:34:41;99868.84;;;18.34;72.95
42951;BME280;28592;51.064;17.192;2022-09-30T14:37:29;99866.53;;;17.82;76.05
42951;BME280;28592;51.064;17.192;2022-09-30T14:43:19;99876.94;;;17.92;76.50
42951;BME280;28592;51.064;17.192;2022-09-30T14:46:12;99875.91;;;17.93;76.19
42951;BME280;28592;51.064;17.192;2022-09-30T14:49:02;99874.69;;;17.95;76.28
42951;BME280;28592;51.064;17.192;2022-09-30T14:51:50;99874.52;;;17.25;77.05
42951;BME280;28592;51.064;17.192;2022-09-30T14:54:46;99871.00;;;17.25;76.88
42951;BME280;28592;51.064;17.192;2022-09-30T14:57:32;99870.00;;;17.26;75.39
42951;BME280;28592;51.064;17.192;2022-09-30T15:00:29;99860.29;;;17.25;76.51
42951;BME280;28592;51.064;17.192;2022-09-30T15:03:15;99867.52;;;17.24;79.19
42951;BME280;28592;51.064;17.192;2022-09-30T15:06:02;99871.31;;;16.72;76.05
42951;BME280;28592;51.064;17.192;2022-09-30T15:08:49;99879.27;;;16.65;77.83
42951;BME280;28592;51.064;17.192;2022-09-30T15:11:41;99878.43;;;16.65;78.06
42951;BME280;28592;51.064;17.192;2022-09-30T15:14:27;99883.23;;;16.32;80.65
42951;BME280;28592;51.064;17.192;2022-09-30T15:17:27;99893.00;;;16.25;81.57
42951;BME280;28592;51.064;17.192;2022-09-30T15:23:15;99875.94;;;16.26;82.10
42951;BME280;28592;51.064;17.192;2022-09-30T15:26:05;99875.83;;;16.57;82.43
42951;BME280;28592;51.064;17.192;2022-09-30T15:28:51;99869.64;;;16.56;82.38
42951;BME280;28592;51.064;17.192;2022-09-30T15:31:43;99885.22;;;16.16;81.94
42951;BME280;28592;51.064;17.192;2022-09-30T15:34:29;99890.56;;;16.16;82.03
42951;BME280;28592;51.064;17.192;2022-09-30T15:37:20;99898.42;;;15.95;84.68
42951;BME280;28592;51.064;17.192;2022-09-30T15:40:17;99902.75;;;15.73;87.29
42951;BME280;28592;51.064;17.192;2022-09-30T15:43:25;99899.23;;;15.72;87.52
42951;BME280;28592;51.064;17.192;2022-09-30T15:46:16;99910.72;;;15.81;87.12
42951;BME280;28592;51.064;17.192;2022-09-30T15:54:59;99915.04;;;15.82;88.01
42951;BME280;28592;51.064;17.192;2022-09-30T15:57:47;99912.77;;;15.71;90.56
42951;BME280;28592;51.064;17.192;2022-09-30T16:00:40;99906.79;;;15.69;90.74
42951;BME280;28592;51.064;17.192;2022-09-30T16:03:27;99905.92;;;15.46;93.31
42951;BME280;28592;51.064;17.192;2022-09-30T16:06:15;99912.28;;;15.45;92.85
42951;BME280;28592;51.064;17.192;2022-09-30T16:09:06;99907.29;;;15.42;92.99
42951;BME280;28592;51.064;17.192;2022-09-30T16:12:05;99912.14;;;15.38;93.89
42951;BME280;28592;51.064;17.192;2022-09-30T16:15:00;99903.11;;;15.31;95.84
42951;BME280;28592;51.064;17.192;2022-09-30T16:17:50;99910.19;;;15.16;96.23
42951;BME280;28592;51.064;17.192;2022-09-30T16:20:35;99921.28;;;14.97;96.80
42951;BME280;28592;51.064;17.192;2022-09-30T16:23:27;99924.99;;;14.80;97.81
42951;BME280;28592;51.064;17.192;2022-09-30T16:26:18;99917.16;;;14.79;97.61
42951;BME280;28592;51.064;17.192;2022-09-30T16:29:07;99944.22;;;14.44;99.26
42951;BME280;28592;51.064;17.192;2022-09-30T16:31:54;99937.23;;;14.43;99.53
42951;BME280;28592;51.064;17.192;2022-09-30T16:34:40;99941.20;;;14.23;100.00
42951;BME280;28592;51.064;17.192;2022-09-30T16:37:26;99958.81;;;13.83;100.00
42951;BME280;28592;51.064;17.192;2022-09-30T16:40:25;99954.77;;;13.63;100.00
42951;BME280;28592;51.064;17.192;2022-09-30T16:43:08;99947.75;;;13.62;100.00
42951;BME280;28592;51.064;17.192;2022-09-30T16:45:56;99958.05;;;13.49;100.00
42951;BME280;28592;51.064;17.192;2022-09-30T16:48:43;99947.48;;;13.24;100.00
42951;BME280;28592;51.064;17.192;2022-09-30T16:51:28;99945.20;;;13.03;100.00
42951;BME280;28592;51.064;17.192;2022-09-30T16:54:14;99951.73;;;13.09;100.00
42951;BME280;28592;51.064;17.192;2022-09-30T16:56:59;99958.66;;;13.02;100.00
42951;BME280;28592;51.064;17.192;2022-09-30T16:59:45;99969.60;;;12.73;100.00
42951;BME280;28592;51.064;17.192;2022-09-30T17:02:30;99979.20;;;12.66;100.00
42951;BME280;28592;51.064;17.192;2022-09-30T17:05:18;99981.72;;;12.50;100.00
42951;BME280;28592;51.064;17.192;2022-09-30T17:08:07;99973.33;;;12.37;100.00
42951;BME280;28592;51.064;17.192;2022-09-30T17:10:53;99965.83;;;12.32;100.00
42951;BME280;28592;51.064;17.192;2022-09-30T17:13:41;99968.25;;;12.26;100.00
42951;BME280;28592;51.064;17.192;2022-09-30T17:16:30;99971.05;;;12.07;100.00
42951;BME280;28592;51.064;17.192;2022-09-30T17:19:16;99973.66;;;11.99;100.00
42951;BME280;28592;51.064;17.192;2022-09-30T17:22:03;99979.03;;;11.89;100.00
42951;BME280;28592;51.064;17.192;2022-09-30T17:24:48;99969.70;;;11.85;100.00
42951;BME280;28592;51.064;17.192;2022-09-30T17:27:37;99969.06;;;11.74;100.00
42951;BME280;28592;51.064;17.192;2022-09-30T17:30:23;99964.75;;;11.73;100.00
42951;BME280;28592;51.064;17.192;2022-09-30T17:33:12;99970.83;;;11.56;100.00
42951;BME280;28592;51.064;17.192;2022-09-30T17:36:05;99984.00;;;11.48;100.00
42951;BME280;28592;51.064;17.192;2022-09-30T17:38:52;99984.44;;;11.43;100.00
42951;BME280;28592;51.064;17.192;2022-09-30T17:41:38;99992.44;;;11.34;100.00
42951;BME280;28592;51.064;17.192;2022-09-30T17:44:38;99992.44;;;11.34;100.00
42951;BME280;28592;51.064;17.192;2022-09-30T17:47:23;99990.78;;;11.33;100.00
42951;BME280;28592;51.064;17.192;2022-09-30T17:50:10;99984.70;;;11.23;100.00
42951;BME280;28592;51.064;17.192;2022-09-30T17:52:56;99997.84;;;11.15;100.00
42951;BME280;28592;51.064;17.192;2022-09-30T17:55:42;99993.99;;;11.00;100.00
42951;BME280;28592;51.064;17.192;2022-09-30T17:58:31;99985.19;;;10.99;100.00